• Join FlightAware (Why Join?)
  • Login
  • US Flag 
11:12PM EDT


 

Airport Tracker/Info


-or-


 

Live Flight TrackerFlight Track Log ✈ KAP29 ✈ 15-Jun-2013 ✈ KBOS - KSLK

Flight Track Log - Related Links

Times and Time Zones

All times are in EDT time to prevent confusion due to time zone crossing. See the KAP29 flight status page for this flight to view local times or setup timezone preferences in your user account.

Time Position Orientation Groundspeed Altitude Reporting Facility
EDT Latitude Longitude Course Direction KTS MPH feet Rate Location/Type
01:29PM 42.3833 -71.0167 340° North 117 135 500  Level KA90
01:31PM 42.4167 -71.0333 340° North 117 135 1,900 960 Climbing KA90
01:32PM 42.4500 -71.0500 340° North 124 143 2,900 1,020 Climbing KA90
01:33PM 42.4833 -71.0667 340° North 122 140 3,900 1,080 Climbing KA90
01:34PM 42.5167 -71.0667 360° North 121 139 5,000 900 Climbing KA90
01:35PM 42.5500 -71.1000 324° Northwest 119 137 6,000 720 Climbing KA90
01:36PM 42.5667 -71.1333 304° West 126 145 6,500 540 Climbing KA90
01:37PM 42.6000 -71.1500 340° North 116 133 7,100 480 Climbing KA90
01:38PM 42.6333 -71.1833 324° Northwest 118 136 7,600 420 Climbing KA90
01:39PM 42.6500 -71.2000 324° Northwest 119 137 8,000 240 Climbing KA90
01:40PM 42.6833 -71.2167 340° North 127 146 8,100  Climbing KA90
01:41PM 42.7333 -71.2500 334° Northwest 146 168 8,000  Descending KA90
01:42PM 42.7500 -71.2833 304° West 141 162 8,100  Climbing KA90
01:43PM 42.7667 -71.3167 304° West 142 163 8,100  Level KA90
01:44PM 42.8000 -71.3500 324° Northwest 148 170 8,100  Level KA90
01:45PM 42.8333 -71.4000 312° West 148 170 8,100 -60 Level KA90
01:46PM 42.8667 -71.4500 312° West 151 174 8,000  Descending KA90
01:47PM 42.9000 -71.4833 324° Northwest 148 170 8,100  Climbing KA90
01:48PM 42.9167 -71.5333 294° West 148 170 8,100 120 Level KA90
01:49PM 42.9500 -71.5667 324° Northwest 143 165 8,400 300 Climbing KA90
01:50PM 42.9667 -71.6000 304° West 132 152 8,700 300 Climbing KA90
01:51PM 43.0000 -71.6333 324° Northwest 130 150 9,000 300 Climbing KA90
01:52PM 43.0167 -71.6667 304° West 132 152 9,300 240 Climbing KA90
01:53PM 43.0500 -71.7167 312° West 133 153 9,500 300 Climbing KA90
01:53PM 43.0631 -71.7353 314° West 135 155 9,800 360 Climbing Boston Center
01:54PM 43.0842 -71.7664 313° West 135 155 10,100 120 Climbing Boston Center
01:55PM 43.1175 -71.8058 319° Northwest 146 168 10,100  Level Boston Center
01:56PM 43.1408 -71.8425 311° West 146 168 10,100  Level Boston Center
01:57PM 43.1722 -71.8878 314° West 146 168 10,100 -60 Level Boston Center
01:58PM 43.1975 -71.9217 316° Northwest 146 168 10,000  Descending Boston Center
01:59PM 43.2289 -71.9669 314° West 146 168 10,100  Climbing Boston Center
02:00PM 43.2542 -72.0039 313° West 146 168 10,000  Descending Boston Center
02:01PM 43.2856 -72.0464 315° West 146 168 10,100  Climbing Boston Center
02:02PM 43.3086 -72.0806 313° West 140 161 10,000  Descending Boston Center
02:03PM 43.3336 -72.1261 307° West 134 154 10,100  Climbing Boston Center
02:04PM 43.3525 -72.1661 303° West 134 154 10,000  Descending Boston Center
02:05PM 43.3817 -72.2172 308° West 144 166 10,100  Climbing Boston Center
02:06PM 43.4006 -72.2572 303° West 150 173 10,100 -60 Level Boston Center
02:07PM 43.4256 -72.3000 309° West 150 173 10,000  Descending Boston Center
02:08PM 43.4486 -72.3456 305° West 150 173 10,100  Climbing Boston Center
02:09PM 43.4736 -72.3914 307° West 150 173 10,100  Level Boston Center
02:10PM 43.4967 -72.4372 305° West 150 173 10,100 -60 Level Boston Center
02:11PM 43.5194 -72.4831 304° West 150 173 10,000  Descending Boston Center
02:12PM 43.5444 -72.5317 305° West 150 173 10,100  Climbing Boston Center
02:13PM 43.5675 -72.5747 306° West 145 167 10,000  Descending Boston Center
02:14PM 43.5903 -72.6178 306° West 145 167 10,100  Climbing Boston Center
02:15PM 43.6111 -72.6639 302° West 145 167 10,100  Level Boston Center
02:16PM 43.6381 -72.7097 309° West 150 173 10,100 -60 Level Boston Center
02:17PM 43.6586 -72.7586 300° West 150 173 10,000 -60 Descending Boston Center
02:19PM 43.6855 -72.8093 306° West  Level FlightAware Approximate
02:19PM 43.7064 -72.8478 306° West 144 166 10,000  Level Boston Center
02:20PM 43.7311 -72.8939 307° West 149 171 10,000  Level Boston Center
02:21PM 43.7539 -72.9403 304° West 149 171 10,100  Climbing Boston Center
02:22PM 43.7744 -72.9836 303° West 149 171 10,100  Level Boston Center
02:23PM 43.7972 -73.0297 304° West 149 171 10,100  Level Boston Center
02:24PM 43.8200 -73.0703 308° West 149 171 10,100 -60 Level Boston Center
02:25PM 43.8425 -73.1164 304° West 149 171 10,000  Descending Boston Center
02:26PM 43.8653 -73.1600 306° West 149 171 10,100  Climbing Boston Center
02:27PM 43.8878 -73.2033 306° West 143 165 10,100  Level Boston Center
02:28PM 43.9083 -73.2497 302° West 143 165 10,100  Level Boston Center
02:29PM 43.9311 -73.2906 308° West 148 170 10,100 -60 Level Boston Center
02:30PM 43.9536 -73.3369 304° West 143 165 10,000  Descending Boston Center
02:31PM 43.9761 -73.3747 310° West 143 165 10,100  Climbing Boston Center
02:32PM 43.9967 -73.4214 301° West 143 165 10,100  Level Boston Center
02:33PM 44.0192 -73.4678 304° West 148 170 10,100  Level Boston Center
02:34PM 44.0439 -73.5086 310° West 148 170 10,100 -60 Level Boston Center
02:35PM 44.0683 -73.5553 306° West 148 170 10,000  Descending Boston Center
02:36PM 44.0908 -73.6019 304° West 148 170 10,100  Climbing Boston Center
02:37PM 44.1153 -73.6544 303° West 154 177 10,100  Level Boston Center